Time;durP1;ratioP1;P1;durP2;ratioP2;P2;SDS_P1;SDS_P2;PMS_P1;PMS_P2;Temp;Humidity;BMP_temperature;BMP_pressure;BME280_temperature;BME280_humidity;BME280_pressure;Samples;Min_cycle;Max_cycle;Signal;HPM_P1;HPM_P2
2024/02/29 00:01:50;;;;;;;22.80;13.50;;;;;;;;;;5054499;28;20021;-73
2024/02/29 00:04:18;;;;;;;23.20;13.07;;;;;;;;;;5053301;28;20380;-73
2024/02/29 00:06:44;;;;;;;21.27;13.43;;;;;;;;;;5054617;28;20489;-74
2024/02/29 00:09:10;;;;;;;16.50;11.20;;;;;;;;;;5053836;28;20532;-74
2024/02/29 00:11:36;;;;;;;23.00;14.90;;;;;;;;;;5054053;28;20456;-73
2024/02/29 00:14:02;;;;;;;23.38;14.07;;;;;;;;;;5053578;28;20020;-73
2024/02/29 00:16:28;;;;;;;20.42;10.70;;;;;;;;;;5052805;28;20060;-74
2024/02/29 00:18:54;;;;;;;22.13;13.43;;;;;;;;;;5054068;28;20029;-74
2024/02/29 00:21:20;;;;;;;17.67;11.75;;;;;;;;;;5054207;28;20021;-74
2024/02/29 00:23:46;;;;;;;17.35;10.90;;;;;;;;;;5055015;28;20028;-74
2024/02/29 00:26:16;;;;;;;22.75;13.25;;;;;;;;;;5053541;28;20472;-74
2024/02/29 00:28:43;;;;;;;20.98;12.88;;;;;;;;;;5056089;28;20083;-74
2024/02/29 00:31:09;;;;;;;20.27;11.38;;;;;;;;;;5054019;28;20472;-74
2024/02/29 00:33:35;;;;;;;15.55;10.27;;;;;;;;;;5053978;28;20021;-75
2024/02/29 00:36:01;;;;;;;23.40;12.50;;;;;;;;;;5053809;28;20021;-75
2024/02/29 00:38:27;;;;;;;19.65;11.32;;;;;;;;;;5052590;28;20040;-75
2024/02/29 00:40:53;;;;;;;18.50;10.65;;;;;;;;;;5052370;28;20025;-74
2024/02/29 00:43:19;;;;;;;19.80;12.02;;;;;;;;;;5053775;28;20511;-76
2024/02/29 00:45:45;;;;;;;20.77;11.75;;;;;;;;;;5052131;28;20024;-75
2024/02/29 00:48:11;;;;;;;20.58;9.90;;;;;;;;;;5052442;28;20029;-76
2024/02/29 00:50:37;;;;;;;19.92;10.55;;;;;;;;;;5052318;28;20059;-75
2024/02/29 00:53:03;;;;;;;17.42;10.60;;;;;;;;;;5053626;28;20397;-74
2024/02/29 00:55:29;;;;;;;15.68;9.25;;;;;;;;;;5053509;28;20025;-76
2024/02/29 00:57:55;;;;;;;16.63;10.60;;;;;;;;;;5051579;28;20029;-74
2024/02/29 01:00:21;;;;;;;19.67;10.88;;;;;;;;;;5051966;28;20029;-75
2024/02/29 01:02:48;;;;;;;16.08;8.95;;;;;;;;;;5053535;28;20032;-75
2024/02/29 01:05:15;;;;;;;16.13;9.75;;;;;;;;;;5053559;28;20556;-75
2024/02/29 01:07:41;;;;;;;20.63;10.90;;;;;;;;;;5051835;28;20422;-76
2024/02/29 01:10:13;;;;;;;16.17;8.95;;;;;;;;;;5053570;28;20025;-75
2024/02/29 01:12:41;;;;;;;17.83;10.23;;;;;;;;;;5051904;28;20021;-75
2024/02/29 01:15:08;;;;;;;18.67;9.57;;;;;;;;;;5051919;28;20021;-75
2024/02/29 01:17:34;;;;;;;20.83;9.38;;;;;;;;;;5053212;28;20060;-73
2024/02/29 01:20:00;;;;;;;15.35;9.82;;;;;;;;;;5051443;28;20029;-74
2024/02/29 01:22:26;;;;;;;16.13;9.07;;;;;;;;;;5052783;28;20021;-75
2024/02/29 01:24:52;;;;;;;17.73;10.25;;;;;;;;;;5052835;28;20025;-74
2024/02/29 01:27:18;;;;;;;14.63;8.07;;;;;;;;;;5051649;28;20028;-75
2024/02/29 01:29:44;;;;;;;14.77;9.07;;;;;;;;;;5052456;28;20024;-75
2024/02/29 01:32:10;;;;;;;17.35;9.63;;;;;;;;;;5051632;28;20025;-75
2024/02/29 01:34:36;;;;;;;22.00;10.27;;;;;;;;;;5052998;28;20364;-73
2024/02/29 01:37:03;;;;;;;20.25;11.25;;;;;;;;;;5051422;28;20391;-73
2024/02/29 01:39:29;;;;;;;18.05;10.10;;;;;;;;;;5052910;28;20025;-75
2024/02/29 01:41:56;;;;;;;19.20;10.73;;;;;;;;;;5051479;28;20025;-75
2024/02/29 01:44:22;;;;;;;16.85;10.50;;;;;;;;;;5051425;28;20456;-74
2024/02/29 01:46:48;;;;;;;17.08;10.13;;;;;;;;;;5051071;28;20029;-75
2024/02/29 01:49:15;;;;;;;22.25;10.88;;;;;;;;;;5051290;28;20021;-75
2024/02/29 01:51:42;;;;;;;15.05;8.77;;;;;;;;;;5052850;28;20021;-74
2024/02/29 01:54:08;;;;;;;17.10;10.07;;;;;;;;;;5051209;28;20032;-75
2024/02/29 01:56:34;;;;;;;15.93;10.43;;;;;;;;;;5051173;28;20017;-75
2024/02/29 01:59:00;;;;;;;21.83;10.77;;;;;;;;;;5052151;28;20090;-74
2024/02/29 02:01:26;;;;;;;18.88;10.43;;;;;;;;;;5052482;28;20063;-74
2024/02/29 02:03:52;;;;;;;20.02;10.32;;;;;;;;;;5052158;28;20025;-74
2024/02/29 02:06:18;;;;;;;18.88;9.95;;;;;;;;;;5051015;28;20442;-73
2024/02/29 02:08:45;;;;;;;20.25;10.93;;;;;;;;;;5052060;28;20031;-73
2024/02/29 02:11:11;;;;;;;19.15;10.05;;;;;;;;;;5052758;28;20025;-73
2024/02/29 02:13:37;;;;;;;20.27;11.88;;;;;;;;;;5052338;28;20021;-74
2024/02/29 02:16:03;;;;;;;23.02;12.60;;;;;;;;;;5050398;28;20045;-74
2024/02/29 02:18:29;;;;;;;22.33;11.85;;;;;;;;;;5051509;28;20457;-74
2024/02/29 02:20:55;;;;;;;16.60;10.90;;;;;;;;;;5052779;28;20376;-74
2024/02/29 02:23:21;;;;;;;24.50;12.05;;;;;;;;;;5052917;28;20453;-73
2024/02/29 02:25:48;;;;;;;20.20;12.13;;;;;;;;;;5051548;28;20029;-74
2024/02/29 02:28:14;;;;;;;18.98;11.68;;;;;;;;;;5051674;28;20029;-74
2024/02/29 02:30:40;;;;;;;19.40;10.38;;;;;;;;;;5051851;28;20079;-75
2024/02/29 02:33:06;;;;;;;23.95;11.63;;;;;;;;;;5050257;28;20036;-75
2024/02/29 02:35:33;;;;;;;19.67;11.57;;;;;;;;;;5051909;28;20017;-74
2024/02/29 02:38:03;;;;;;;18.88;12.27;;;;;;;;;;5050557;28;20373;-73
2024/02/29 02:40:29;;;;;;;26.57;11.40;;;;;;;;;;5051297;28;20032;-74
2024/02/29 02:42:55;;;;;;;17.67;10.45;;;;;;;;;;5051034;28;20271;-73
2024/02/29 02:45:21;;;;;;;23.25;12.70;;;;;;;;;;5052365;28;20468;-74
2024/02/29 02:47:47;;;;;;;20.67;9.43;;;;;;;;;;5050653;28;20052;-74
2024/02/29 02:50:14;;;;;;;22.50;11.90;;;;;;;;;;5050573;28;20052;-74
2024/02/29 02:52:40;;;;;;;23.55;13.05;;;;;;;;;;5051876;28;20075;-74
2024/02/29 02:55:06;;;;;;;21.10;11.70;;;;;;;;;;5051612;28;20038;-75
2024/02/29 02:57:32;;;;;;;20.00;11.20;;;;;;;;;;5051734;28;20079;-74
2024/02/29 02:59:58;;;;;;;25.27;13.93;;;;;;;;;;5051569;28;20472;-74
2024/02/29 03:02:24;;;;;;;22.77;13.65;;;;;;;;;;5051785;28;20031;-75
2024/02/29 03:04:50;;;;;;;20.63;11.32;;;;;;;;;;5051507;28;20053;-75
2024/02/29 03:07:16;;;;;;;20.33;12.05;;;;;;;;;;5050530;28;20036;-75
2024/02/29 03:09:42;;;;;;;23.90;12.70;;;;;;;;;;5051551;28;20029;-74
2024/02/29 03:12:08;;;;;;;24.23;13.20;;;;;;;;;;5051447;28;20025;-75
2024/02/29 03:14:35;;;;;;;23.13;13.15;;;;;;;;;;5051432;28;20092;-74
2024/02/29 03:17:01;;;;;;;23.50;12.30;;;;;;;;;;5050008;28;20067;-73
2024/02/29 03:19:27;;;;;;;18.17;11.32;;;;;;;;;;5050676;28;20021;-74
2024/02/29 03:21:53;;;;;;;28.60;14.32;;;;;;;;;;5050285;28;20468;-73
2024/02/29 03:24:19;;;;;;;24.67;13.45;;;;;;;;;;5050428;28;20025;-73
2024/02/29 03:26:45;;;;;;;25.23;12.50;;;;;;;;;;5050351;28;20495;-75
2024/02/29 03:29:11;;;;;;;23.25;13.90;;;;;;;;;;5050150;28;20027;-74
2024/02/29 03:31:38;;;;;;;24.42;14.23;;;;;;;;;;5050524;28;20036;-74
2024/02/29 03:34:04;;;;;;;22.90;11.80;;;;;;;;;;5049945;28;20037;-75
2024/02/29 03:36:30;;;;;;;28.05;13.75;;;;;;;;;;5051913;28;20024;-74
2024/02/29 03:38:56;;;;;;;22.63;12.48;;;;;;;;;;5051470;28;20032;-75
2024/02/29 03:41:22;;;;;;;23.98;13.13;;;;;;;;;;5050625;28;20032;-75
2024/02/29 03:43:48;;;;;;;23.65;12.70;;;;;;;;;;5052957;28;20067;-75
2024/02/29 03:46:14;;;;;;;25.67;13.75;;;;;;;;;;5053931;28;20033;-75
2024/02/29 03:48:40;;;;;;;25.17;14.20;;;;;;;;;;5054046;28;20535;-74
2024/02/29 03:51:06;;;;;;;25.25;11.45;;;;;;;;;;5055090;28;20017;-74
2024/02/29 03:53:32;;;;;;;23.85;14.48;;;;;;;;;;5053768;28;20108;-75
2024/02/29 03:55:58;;;;;;;27.30;13.73;;;;;;;;;;5053551;28;20025;-73
2024/02/29 03:58:24;;;;;;;26.38;15.00;;;;;;;;;;5053585;28;20055;-75
2024/02/29 04:00:50;;;;;;;25.23;14.05;;;;;;;;;;5053625;28;20029;-74
2024/02/29 04:03:16;;;;;;;21.38;13.73;;;;;;;;;;5054316;28;20071;-74
2024/02/29 04:05:43;;;;;;;25.50;13.98;;;;;;;;;;5054733;28;20025;-74
2024/02/29 04:08:12;;;;;;;21.67;12.60;;;;;;;;;;5053249;28;20366;-74
2024/02/29 04:10:44;;;;;;;22.52;12.38;;;;;;;;;;5054569;28;20017;-74
2024/02/29 04:13:10;;;;;;;19.40;11.30;;;;;;;;;;5054024;28;20025;-75
2024/02/29 04:15:37;;;;;;;25.02;12.88;;;;;;;;;;5052902;28;20025;-74
2024/02/29 04:18:04;;;;;;;23.92;13.15;;;;;;;;;;5054402;28;20120;-74
2024/02/29 04:20:30;;;;;;;25.35;13.68;;;;;;;;;;5054840;28;20365;-75
2024/02/29 04:22:56;;;;;;;23.98;14.35;;;;;;;;;;5054206;28;20485;-73
2024/02/29 04:25:23;;;;;;;18.67;10.93;;;;;;;;;;5055014;28;20021;-74
2024/02/29 04:27:52;;;;;;;26.83;13.52;;;;;;;;;;5054339;28;20031;-75
2024/02/29 04:30:18;;;;;;;27.40;14.57;;;;;;;;;;5052753;28;20025;-75
2024/02/29 04:32:44;;;;;;;22.52;11.98;;;;;;;;;;5054377;28;20070;-75
2024/02/29 04:35:10;;;;;;;30.25;14.93;;;;;;;;;;5053899;28;20021;-74
2024/02/29 04:37:37;;;;;;;21.50;12.75;;;;;;;;;;5054352;28;20033;-74
2024/02/29 04:40:07;;;;;;;21.17;12.43;;;;;;;;;;5052978;28;20040;-74
2024/02/29 04:42:33;;;;;;;21.63;12.43;;;;;;;;;;5053365;28;20519;-74
2024/02/29 04:44:59;;;;;;;22.52;14.52;;;;;;;;;;5054456;28;20049;-76
2024/02/29 04:47:25;;;;;;;23.90;13.50;;;;;;;;;;5052479;28;20032;-75
2024/02/29 04:49:52;;;;;;;25.70;13.95;;;;;;;;;;5054037;28;20017;-74
2024/02/29 04:52:18;;;;;;;31.73;16.85;;;;;;;;;;5053719;28;20017;-74
2024/02/29 04:54:44;;;;;;;29.60;14.30;;;;;;;;;;5052120;28;20032;-74
2024/02/29 04:57:10;;;;;;;27.73;15.73;;;;;;;;;;5053647;28;20389;-74
2024/02/29 04:59:36;;;;;;;29.10;16.70;;;;;;;;;;5053816;28;20025;-74
2024/02/29 05:02:02;;;;;;;29.48;16.40;;;;;;;;;;5053678;28;20092;-75
2024/02/29 05:04:28;;;;;;;27.23;16.35;;;;;;;;;;5052384;28;20017;-75
2024/02/29 05:06:54;;;;;;;30.92;16.10;;;;;;;;;;5054005;28;20495;-75
2024/02/29 05:09:20;;;;;;;25.17;14.05;;;;;;;;;;5052162;28;20028;-75
2024/02/29 05:11:47;;;;;;;26.05;15.68;;;;;;;;;;5053603;28;20021;-75
2024/02/29 05:14:13;;;;;;;28.80;16.65;;;;;;;;;;5053423;28;20029;-76
2024/02/29 05:16:39;;;;;;;34.45;19.33;;;;;;;;;;5051817;28;20467;-75
2024/02/29 05:19:05;;;;;;;30.52;16.45;;;;;;;;;;5051618;28;20487;-76
2024/02/29 05:21:31;;;;;;;33.67;13.43;;;;;;;;;;5053006;28;20035;-76
2024/02/29 05:23:57;;;;;;;31.17;16.38;;;;;;;;;;5053001;28;20472;-76
2024/02/29 05:26:23;;;;;;;26.73;14.85;;;;;;;;;;5053057;28;20029;-74
2024/02/29 05:28:49;;;;;;;33.05;16.27;;;;;;;;;;5051566;28;20022;-74
2024/02/29 05:31:15;;;;;;;26.17;15.57;;;;;;;;;;5052776;28;20411;-75
2024/02/29 05:33:41;;;;;;;29.67;15.88;;;;;;;;;;5053134;28;20457;-74
2024/02/29 05:36:07;;;;;;;31.08;17.60;;;;;;;;;;5052997;28;20032;-75
2024/02/29 05:38:33;;;;;;;31.40;16.55;;;;;;;;;;5053013;28;20059;-74
2024/02/29 05:41:02;;;;;;;27.90;14.85;;;;;;;;;;5051207;28;20040;-75
2024/02/29 05:43:28;;;;;;;31.15;16.65;;;;;;;;;;5051249;28;20048;-74
2024/02/29 05:45:54;;;;;;;25.90;13.43;;;;;;;;;;5053153;28;20033;-75
2024/02/29 05:48:20;;;;;;;27.88;15.68;;;;;;;;;;5052567;28;20103;-74
2024/02/29 05:50:46;;;;;;;28.10;15.18;;;;;;;;;;5052900;28;20461;-75
2024/02/29 05:53:14;;;;;;;30.52;17.00;;;;;;;;;;5051230;28;20489;-74
2024/02/29 05:55:41;;;;;;;24.33;14.20;;;;;;;;;;5052935;28;20033;-76
2024/02/29 05:58:07;;;;;;;30.33;16.50;;;;;;;;;;5052459;28;20021;-73
2024/02/29 06:00:33;;;;;;;27.67;16.92;;;;;;;;;;5051313;28;20111;-74
2024/02/29 06:02:59;;;;;;;30.08;17.13;;;;;;;;;;5051138;28;20534;-74
2024/02/29 06:05:25;;;;;;;26.45;16.25;;;;;;;;;;5050889;28;20051;-75
2024/02/29 06:07:51;;;;;;;28.33;15.65;;;;;;;;;;5050670;28;20115;-74
2024/02/29 06:10:19;;;;;;;27.88;14.88;;;;;;;;;;5051093;28;20430;-74
2024/02/29 06:12:45;;;;;;;23.80;13.43;;;;;;;;;;5052422;28;20104;-75
2024/02/29 06:15:11;;;;;;;31.08;18.27;;;;;;;;;;5050996;28;20029;-74
2024/02/29 06:17:37;;;;;;;21.83;12.52;;;;;;;;;;5051157;28;20377;-75
2024/02/29 06:20:08;;;;;;;24.92;14.02;;;;;;;;;;5053380;28;20075;-76
2024/02/29 06:22:35;;;;;;;27.17;14.70;;;;;;;;;;5053120;28;20036;-74
2024/02/29 06:25:03;;;;;;;24.95;14.57;;;;;;;;;;5054124;28;20021;-75
2024/02/29 06:27:29;;;;;;;27.50;14.95;;;;;;;;;;5051495;28;20036;-74
2024/02/29 06:29:55;;;;;;;29.48;15.07;;;;;;;;;;5052579;28;20159;-75
2024/02/29 06:32:24;;;;;;;25.60;14.65;;;;;;;;;;5050723;28;20029;-73
2024/02/29 06:34:50;;;;;;;26.02;16.85;;;;;;;;;;5050735;28;20028;-74
2024/02/29 06:37:17;;;;;;;24.95;15.45;;;;;;;;;;5051779;28;20033;-73
2024/02/29 06:39:44;;;;;;;27.80;16.23;;;;;;;;;;5050497;28;20491;-74
2024/02/29 06:42:10;;;;;;;27.25;14.02;;;;;;;;;;5050308;28;20477;-73
2024/02/29 06:44:36;;;;;;;24.38;13.20;;;;;;;;;;5050316;28;20021;-74
2024/02/29 06:47:02;;;;;;;27.00;14.38;;;;;;;;;;5051734;28;20037;-73
2024/02/29 06:49:28;;;;;;;24.80;15.05;;;;;;;;;;5050642;28;20557;-73
2024/02/29 06:51:54;;;;;;;28.60;14.95;;;;;;;;;;5052144;28;20052;-73
2024/02/29 06:54:20;;;;;;;27.75;15.95;;;;;;;;;;5051961;28;20025;-74
2024/02/29 06:56:46;;;;;;;27.58;14.90;;;;;;;;;;5052597;28;20021;-72
2024/02/29 06:59:12;;;;;;;26.80;15.57;;;;;;;;;;5051508;28;20044;-75
2024/02/29 07:01:38;;;;;;;26.17;13.57;;;;;;;;;;5052168;28;20071;-74
2024/02/29 07:04:04;;;;;;;28.25;14.75;;;;;;;;;;5050181;28;20029;-74
2024/02/29 07:06:30;;;;;;;26.38;14.52;;;;;;;;;;5051804;28;20476;-74
2024/02/29 07:08:56;;;;;;;23.25;14.32;;;;;;;;;;5052074;28;20036;-74
2024/02/29 07:11:22;;;;;;;22.33;12.52;;;;;;;;;;5051785;28;20021;-74
2024/02/29 07:13:49;;;;;;;28.75;15.05;;;;;;;;;;5050410;28;20075;-75
2024/02/29 07:16:15;;;;;;;28.20;14.50;;;;;;;;;;5050728;28;20447;-74
2024/02/29 07:18:41;;;;;;;26.85;16.27;;;;;;;;;;5054446;28;20036;-73
2024/02/29 07:21:07;;;;;;;26.45;14.02;;;;;;;;;;5054845;28;20380;-73
2024/02/29 07:23:35;;;;;;;24.80;14.13;;;;;;;;;;5054145;28;20108;-74
2024/02/29 07:26:03;;;;;;;22.75;12.57;;;;;;;;;;5055448;28;20071;-74
2024/02/29 07:28:29;;;;;;;23.00;14.75;;;;;;;;;;5053823;28;20055;-73
2024/02/29 07:30:56;;;;;;;21.30;13.18;;;;;;;;;;5055309;28;20029;-74
2024/02/29 07:33:22;;;;;;;22.85;13.60;;;;;;;;;;5053709;28;20025;-74
2024/02/29 07:35:48;;;;;;;18.25;10.55;;;;;;;;;;5054709;28;20024;-74
2024/02/29 07:38:14;;;;;;;29.02;16.88;;;;;;;;;;5054789;28;20025;-74
2024/02/29 07:40:41;;;;;;;27.92;16.17;;;;;;;;;;5055256;28;20049;-75
2024/02/29 07:43:07;;;;;;;21.67;11.18;;;;;;;;;;5053737;28;20029;-73
2024/02/29 07:45:33;;;;;;;25.30;14.18;;;;;;;;;;5053668;28;20079;-74
2024/02/29 07:48:00;;;;;;;23.73;13.65;;;;;;;;;;5053648;28;20057;-74
2024/02/29 07:50:26;;;;;;;18.95;11.95;;;;;;;;;;5053444;28;20048;-74
2024/02/29 07:52:52;;;;;;;22.40;13.27;;;;;;;;;;5053564;28;20021;-74
2024/02/29 07:55:18;;;;;;;22.38;13.50;;;;;;;;;;5052952;28;20055;-74
2024/02/29 07:57:44;;;;;;;23.95;13.90;;;;;;;;;;5053363;28;20076;-74
2024/02/29 08:00:11;;;;;;;21.52;12.15;;;;;;;;;;5054509;28;20457;-74
2024/02/29 08:02:37;;;;;;;25.42;13.82;;;;;;;;;;5053266;28;20481;-74
2024/02/29 08:05:04;;;;;;;26.23;13.82;;;;;;;;;;5054612;28;20033;-74
2024/02/29 08:07:30;;;;;;;20.75;13.05;;;;;;;;;;5054436;28;20025;-74
2024/02/29 08:09:57;;;;;;;24.50;13.95;;;;;;;;;;5053209;28;20465;-74
2024/02/29 08:12:23;;;;;;;26.80;12.98;;;;;;;;;;5054376;28;20027;-74
2024/02/29 08:14:49;;;;;;;21.70;12.35;;;;;;;;;;5053171;28;20090;-74
2024/02/29 08:17:16;;;;;;;21.63;12.80;;;;;;;;;;5054575;28;20049;-73
2024/02/29 08:19:42;;;;;;;20.52;11.45;;;;;;;;;;5053464;28;20021;-74
2024/02/29 08:22:08;;;;;;;19.08;10.93;;;;;;;;;;5055362;28;20485;-74
2024/02/29 08:24:34;;;;;;;22.52;12.93;;;;;;;;;;5054862;28;20029;-73
2024/02/29 08:27:00;;;;;;;17.63;11.02;;;;;;;;;;5052700;28;20040;-73
2024/02/29 08:29:26;;;;;;;21.67;12.25;;;;;;;;;;5051649;28;20021;-74
2024/02/29 08:31:53;;;;;;;22.73;13.18;;;;;;;;;;5052761;28;20052;-74
2024/02/29 08:34:19;;;;;;;22.02;13.82;;;;;;;;;;5053821;28;20031;-74
2024/02/29 08:36:46;;;;;;;25.55;12.43;;;;;;;;;;5054117;28;20727;-74
2024/02/29 08:39:12;;;;;;;21.98;12.80;;;;;;;;;;5053827;28;20035;-74
2024/02/29 08:41:38;;;;;;;20.65;10.88;;;;;;;;;;5052696;28;20111;-74
2024/02/29 08:44:04;;;;;;;20.48;11.02;;;;;;;;;;5052570;28;20495;-74
2024/02/29 08:46:30;;;;;;;21.50;13.35;;;;;;;;;;5053701;28;20084;-74
2024/02/29 08:48:56;;;;;;;22.63;13.43;;;;;;;;;;5052675;28;20143;-74
2024/02/29 08:51:22;;;;;;;20.30;12.27;;;;;;;;;;5053596;28;20017;-74
2024/02/29 08:53:48;;;;;;;22.50;13.05;;;;;;;;;;5052446;28;20032;-74
2024/02/29 08:56:14;;;;;;;18.77;11.18;;;;;;;;;;5053546;28;20131;-73
2024/02/29 08:58:41;;;;;;;22.48;12.20;;;;;;;;;;5053486;28;20079;-74
2024/02/29 09:01:07;;;;;;;17.65;10.70;;;;;;;;;;5053637;28;20056;-74
2024/02/29 09:03:33;;;;;;;23.85;12.98;;;;;;;;;;5052268;28;20040;-73
2024/02/29 09:05:59;;;;;;;23.85;13.43;;;;;;;;;;5053267;28;20595;-73
2024/02/29 09:08:25;;;;;;;21.13;12.73;;;;;;;;;;5053021;28;20230;-73
2024/02/29 09:10:51;;;;;;;20.95;11.65;;;;;;;;;;5053604;28;20234;-73
2024/02/29 09:13:17;;;;;;;21.38;12.02;;;;;;;;;;5053303;28;20078;-73
2024/02/29 09:15:44;;;;;;;22.55;12.85;;;;;;;;;;5053107;28;20033;-74
2024/02/29 09:18:10;;;;;;;20.27;10.63;;;;;;;;;;5052266;28;20025;-73
2024/02/29 09:20:36;;;;;;;20.75;13.60;;;;;;;;;;5052372;28;20497;-74
2024/02/29 09:23:02;;;;;;;20.48;12.52;;;;;;;;;;5051847;28;20079;-74
2024/02/29 09:25:28;;;;;;;19.98;12.32;;;;;;;;;;5051543;28;20051;-74
2024/02/29 09:27:54;;;;;;;19.40;12.95;;;;;;;;;;5053060;28;20025;-74
2024/02/29 09:30:20;;;;;;;19.05;11.05;;;;;;;;;;5051525;28;20025;-73
2024/02/29 09:32:51;;;;;;;20.60;12.98;;;;;;;;;;5053001;28;20027;-74
2024/02/29 09:35:17;;;;;;;21.00;11.65;;;;;;;;;;5051091;28;20021;-72
2024/02/29 09:37:44;;;;;;;18.52;11.13;;;;;;;;;;5052524;28;20356;-73
2024/02/29 09:40:10;;;;;;;22.33;11.93;;;;;;;;;;5051520;28;20040;-74
2024/02/29 09:42:37;;;;;;;18.60;11.02;;;;;;;;;;5051561;28;20021;-75
2024/02/29 09:45:05;;;;;;;20.05;12.25;;;;;;;;;;5051521;28;20029;-75
2024/02/29 09:47:31;;;;;;;22.23;11.40;;;;;;;;;;5051229;28;20589;-73
2024/02/29 09:49:59;;;;;;;22.27;13.00;;;;;;;;;;5051300;28;20067;-74
2024/02/29 09:52:26;;;;;;;23.77;13.30;;;;;;;;;;5051141;28;20032;-74
2024/02/29 09:54:52;;;;;;;25.30;11.73;;;;;;;;;;5052662;28;20024;-74
2024/02/29 09:57:19;;;;;;;21.65;11.13;;;;;;;;;;5051033;28;20029;-74
2024/02/29 09:59:46;;;;;;;22.98;12.25;;;;;;;;;;5052479;28;20028;-74
2024/02/29 10:02:18;;;;;;;17.65;10.40;;;;;;;;;;5052379;28;20024;-72
2024/02/29 10:04:45;;;;;;;19.60;11.60;;;;;;;;;;5052344;28;20037;-74
2024/02/29 10:07:11;;;;;;;18.27;12.05;;;;;;;;;;5051098;28;20432;-73
2024/02/29 10:09:37;;;;;;;20.25;11.38;;;;;;;;;;5052352;28;20025;-73
2024/02/29 10:12:04;;;;;;;20.58;11.02;;;;;;;;;;5052675;28;20114;-73
2024/02/29 10:14:30;;;;;;;16.98;11.05;;;;;;;;;;5052969;28;20021;-73
2024/02/29 10:16:57;;;;;;;19.33;11.50;;;;;;;;;;5051466;28;20045;-74
2024/02/29 10:19:23;;;;;;;17.67;10.35;;;;;;;;;;5053085;28;20037;-72
2024/02/29 10:21:50;;;;;;;21.88;13.77;;;;;;;;;;5053137;28;20029;-73
2024/02/29 10:24:19;;;;;;;21.95;12.38;;;;;;;;;;5051672;28;20055;-73
2024/02/29 10:26:46;;;;;;;18.10;10.73;;;;;;;;;;5050853;28;20063;-74
2024/02/29 10:29:14;;;;;;;18.85;11.77;;;;;;;;;;5052212;28;20103;-74
2024/02/29 10:31:41;;;;;;;18.55;11.48;;;;;;;;;;5052272;28;20021;-74
2024/02/29 10:34:11;;;;;;;19.38;11.68;;;;;;;;;;5051988;28;20487;-74
2024/02/29 10:36:37;;;;;;;20.33;10.93;;;;;;;;;;5050546;28;20051;-74
2024/02/29 10:39:03;;;;;;;16.67;10.88;;;;;;;;;;5050636;28;20025;-74
2024/02/29 10:41:33;;;;;;;17.00;10.95;;;;;;;;;;5050503;28;20029;-74
2024/02/29 10:44:03;;;;;;;20.05;12.32;;;;;;;;;;5050513;28;20125;-74
2024/02/29 10:46:30;;;;;;;17.75;9.90;;;;;;;;;;5051777;28;20028;-74
2024/02/29 10:49:09;;;;;;;16.10;10.23;;;;;;;;;;5051916;28;20131;-73
2024/02/29 10:51:36;;;;;;;18.27;10.63;;;;;;;;;;5051690;28;20047;-73
2024/02/29 10:54:20;;;;;;;22.80;12.27;;;;;;;;;;5055529;28;20101;-73
2024/02/29 10:56:48;;;;;;;20.17;12.65;;;;;;;;;;5055908;28;20384;-74
2024/02/29 10:59:17;;;;;;;20.83;11.65;;;;;;;;;;5055835;28;20025;-73
2024/02/29 11:01:44;;;;;;;19.60;10.80;;;;;;;;;;5054641;28;20032;-74
2024/02/29 11:04:10;;;;;;;20.50;11.27;;;;;;;;;;5056088;28;20032;-74
2024/02/29 11:06:43;;;;;;;20.90;12.48;;;;;;;;;;5054128;28;20025;-74
2024/02/29 11:09:10;;;;;;;22.65;12.23;;;;;;;;;;5055699;28;20024;-74
2024/02/29 11:11:36;;;;;;;16.85;9.82;;;;;;;;;;5055486;28;20083;-74
2024/02/29 11:14:12;;;;;;;21.15;12.15;;;;;;;;;;5054279;28;20392;-74
2024/02/29 11:16:39;;;;;;;19.05;11.13;;;;;;;;;;5055031;28;20045;-74
2024/02/29 11:19:11;;;;;;;16.55;9.43;;;;;;;;;;5055474;28;20111;-74
2024/02/29 11:21:37;;;;;;;22.52;11.25;;;;;;;;;;5053941;28;20403;-74
2024/02/29 11:24:04;;;;;;;18.35;11.23;;;;;;;;;;5054125;28;20456;-74
2024/02/29 11:26:34;;;;;;;18.02;11.93;;;;;;;;;;5053857;28;20392;-74
2024/02/29 11:29:00;;;;;;;16.97;11.37;;;;;;;;;;5054214;28;20394;-73
2024/02/29 11:31:26;;;;;;;15.57;10.95;;;;;;;;;;5053944;28;20021;-73
2024/02/29 11:33:52;;;;;;;20.00;11.50;;;;;;;;;;5056062;28;20017;-73
2024/02/29 11:36:20;;;;;;;20.70;11.35;;;;;;;;;;5055212;28;20021;-73
2024/02/29 11:38:46;;;;;;;16.98;9.18;;;;;;;;;;5055061;28;20025;-73
2024/02/29 11:41:22;;;;;;;17.10;9.07;;;;;;;;;;5055483;28;20048;-73
2024/02/29 11:43:49;;;;;;;20.92;11.18;;;;;;;;;;5053750;28;20123;-73
2024/02/29 11:46:15;;;;;;;20.88;10.85;;;;;;;;;;5054995;28;20071;-73
2024/02/29 11:48:41;;;;;;;20.10;11.50;;;;;;;;;;5054680;28;20028;-74
2024/02/29 11:51:08;;;;;;;18.13;11.80;;;;;;;;;;5053648;28;20033;-74
2024/02/29 11:53:35;;;;;;;16.13;8.75;;;;;;;;;;5053268;28;20474;-73
2024/02/29 11:56:02;;;;;;;18.85;9.85;;;;;;;;;;5054843;28;20421;-74
2024/02/29 11:58:29;;;;;;;20.90;11.35;;;;;;;;;;5054471;28;20025;-74
2024/02/29 12:00:55;;;;;;;18.42;10.45;;;;;;;;;;5053422;28;20021;-74
2024/02/29 12:03:21;;;;;;;15.45;9.73;;;;;;;;;;5054018;28;20017;-74
2024/02/29 12:05:47;;;;;;;16.15;10.23;;;;;;;;;;5053878;28;20439;-75
2024/02/29 12:08:14;;;;;;;15.40;9.13;;;;;;;;;;5054732;28;20025;-74
2024/02/29 12:10:40;;;;;;;19.27;10.88;;;;;;;;;;5054223;28;20374;-74
2024/02/29 12:13:06;;;;;;;18.75;12.02;;;;;;;;;;5053990;28;20461;-73
2024/02/29 12:15:34;;;;;;;21.70;11.85;;;;;;;;;;5055237;28;20077;-73
2024/02/29 12:18:00;;;;;;;21.85;11.13;;;;;;;;;;5054450;28;20098;-73
2024/02/29 12:20:26;;;;;;;17.30;10.20;;;;;;;;;;5054310;28;20380;-74
2024/02/29 12:22:59;;;;;;;19.70;10.32;;;;;;;;;;5053080;28;20033;-74
2024/02/29 12:25:25;;;;;;;14.07;8.70;;;;;;;;;;5054012;28;20029;-75
2024/02/29 12:27:52;;;;;;;16.55;10.48;;;;;;;;;;5053934;28;20485;-74
2024/02/29 12:30:21;;;;;;;16.00;10.32;;;;;;;;;;5052871;28;20017;-75
2024/02/29 12:32:48;;;;;;;17.50;11.60;;;;;;;;;;5054184;28;20051;-75
2024/02/29 12:35:15;;;;;;;13.82;8.77;;;;;;;;;;5054073;28;20029;-75
2024/02/29 12:37:42;;;;;;;15.85;10.05;;;;;;;;;;5052510;28;20067;-75
2024/02/29 12:40:08;;;;;;;15.52;9.57;;;;;;;;;;5052806;28;20021;-73
2024/02/29 12:42:35;;;;;;;16.83;10.73;;;;;;;;;;5053753;28;20480;-74
2024/02/29 12:45:01;;;;;;;14.82;9.18;;;;;;;;;;5054278;28;20465;-74
2024/02/29 12:47:27;;;;;;;14.32;8.90;;;;;;;;;;5053908;28;20029;-74
2024/02/29 12:49:53;;;;;;;17.05;10.73;;;;;;;;;;5052558;28;20419;-74
2024/02/29 12:52:20;;;;;;;16.50;10.38;;;;;;;;;;5053800;28;20025;-75
2024/02/29 12:54:46;;;;;;;14.88;8.98;;;;;;;;;;5052456;28;20151;-75
2024/02/29 12:57:12;;;;;;;18.88;11.30;;;;;;;;;;5052029;28;20025;-75
2024/02/29 12:59:38;;;;;;;14.68;8.90;;;;;;;;;;5053099;28;20017;-75
2024/02/29 13:02:04;;;;;;;15.20;10.07;;;;;;;;;;5052366;28;20028;-75
2024/02/29 13:04:30;;;;;;;18.02;11.27;;;;;;;;;;5052006;28;20028;-74
2024/02/29 13:06:56;;;;;;;15.52;10.27;;;;;;;;;;5052189;28;20044;-74
2024/02/29 13:09:23;;;;;;;16.58;9.70;;;;;;;;;;5051950;28;20029;-74
2024/02/29 13:11:49;;;;;;;18.55;10.23;;;;;;;;;;5051901;28;20028;-75
2024/02/29 13:14:15;;;;;;;15.35;10.38;;;;;;;;;;5053526;28;20461;-74
2024/02/29 13:16:41;;;;;;;15.93;9.13;;;;;;;;;;5051138;28;20076;-74
2024/02/29 13:19:07;;;;;;;13.60;8.48;;;;;;;;;;5052975;28;20025;-75
2024/02/29 13:21:33;;;;;;;13.23;8.10;;;;;;;;;;5052719;28;20021;-75
2024/02/29 13:23:59;;;;;;;16.00;9.85;;;;;;;;;;5052213;28;20428;-74
2024/02/29 13:26:25;;;;;;;12.10;7.60;;;;;;;;;;5053078;28;20100;-75
2024/02/29 13:28:51;;;;;;;13.93;8.70;;;;;;;;;;5053128;28;20057;-74
2024/02/29 13:31:17;;;;;;;12.38;7.03;;;;;;;;;;5051750;28;20469;-75
2024/02/29 13:33:43;;;;;;;15.45;9.75;;;;;;;;;;5051425;28;20400;-75
2024/02/29 13:36:09;;;;;;;14.35;8.57;;;;;;;;;;5051670;28;20490;-74
2024/02/29 13:38:36;;;;;;;14.45;8.95;;;;;;;;;;5052694;28;20048;-75
2024/02/29 13:41:02;;;;;;;10.07;6.38;;;;;;;;;;5052932;28;20029;-74
2024/02/29 13:43:28;;;;;;;14.98;9.70;;;;;;;;;;5052711;28;20029;-74
2024/02/29 13:45:54;;;;;;;14.73;7.47;;;;;;;;;;5052703;28;20151;-74
2024/02/29 13:48:20;;;;;;;15.48;9.85;;;;;;;;;;5053035;28;20033;-74
2024/02/29 13:50:46;;;;;;;12.27;8.25;;;;;;;;;;5052839;28;20021;-74
2024/02/29 13:53:12;;;;;;;18.33;9.20;;;;;;;;;;5052762;28;20036;-74
2024/02/29 13:55:38;;;;;;;12.63;7.70;;;;;;;;;;5051081;28;20428;-74
2024/02/29 13:58:04;;;;;;;12.82;9.50;;;;;;;;;;5051286;28;20052;-74
2024/02/29 14:00:32;;;;;;;13.77;8.77;;;;;;;;;;5052627;28;20024;-74
2024/02/29 14:02:58;;;;;;;14.23;9.65;;;;;;;;;;5051159;28;20052;-75
2024/02/29 14:05:24;;;;;;;13.45;8.23;;;;;;;;;;5050953;28;20028;-75
2024/02/29 14:07:50;;;;;;;14.13;9.50;;;;;;;;;;5051180;28;20032;-74
2024/02/29 14:10:16;;;;;;;14.63;10.07;;;;;;;;;;5051748;28;20376;-73
2024/02/29 14:12:45;;;;;;;15.23;9.60;;;;;;;;;;5053230;28;20017;-74
2024/02/29 14:15:11;;;;;;;14.93;10.20;;;;;;;;;;5052243;28;20021;-74